sensor_id;sensor_type;location;lat;lon;timestamp;P1;durP1;ratioP1;P2;durP2;ratioP2
20287;SDS011;10303;51.960;8.372;2023-06-04T00:02:19;0.70;;;0.60;;
20287;SDS011;10303;51.960;8.372;2023-06-04T00:04:45;0.70;;;0.50;;
20287;SDS011;10303;51.960;8.372;2023-06-04T00:07:11;0.80;;;0.50;;
20287;SDS011;10303;51.960;8.372;2023-06-04T00:09:37;1.10;;;0.50;;
20287;SDS011;10303;51.960;8.372;2023-06-04T00:12:03;0.40;;;0.40;;
20287;SDS011;10303;51.960;8.372;2023-06-04T00:14:30;0.60;;;0.60;;
20287;SDS011;10303;51.960;8.372;2023-06-04T00:16:56;1.10;;;0.40;;
20287;SDS011;10303;51.960;8.372;2023-06-04T00:19:22;0.50;;;0.47;;
20287;SDS011;10303;51.960;8.372;2023-06-04T00:21:48;0.90;;;0.50;;
20287;SDS011;10303;51.960;8.372;2023-06-04T00:24:15;0.70;;;0.50;;
20287;SDS011;10303;51.960;8.372;2023-06-04T00:26:42;0.90;;;0.47;;
20287;SDS011;10303;51.960;8.372;2023-06-04T00:29:08;0.70;;;0.70;;
20287;SDS011;10303;51.960;8.372;2023-06-04T00:31:34;0.40;;;0.40;;
20287;SDS011;10303;51.960;8.372;2023-06-04T00:34:00;0.47;;;0.40;;
20287;SDS011;10303;51.960;8.372;2023-06-04T00:36:28;0.40;;;0.40;;
20287;SDS011;10303;51.960;8.372;2023-06-04T00:38:54;0.70;;;0.70;;
20287;SDS011;10303;51.960;8.372;2023-06-04T00:41:20;0.40;;;0.40;;
20287;SDS011;10303;51.960;8.372;2023-06-04T00:43:46;0.50;;;0.40;;
20287;SDS011;10303;51.960;8.372;2023-06-04T00:46:27;0.60;;;0.50;;
20287;SDS011;10303;51.960;8.372;2023-06-04T00:48:54;0.40;;;0.40;;
20287;SDS011;10303;51.960;8.372;2023-06-04T00:51:20;0.50;;;0.50;;
20287;SDS011;10303;51.960;8.372;2023-06-04T00:53:50;0.33;;;0.33;;
20287;SDS011;10303;51.960;8.372;2023-06-04T00:56:17;0.57;;;0.57;;
20287;SDS011;10303;51.960;8.372;2023-06-04T00:58:44;0.40;;;0.40;;
20287;SDS011;10303;51.960;8.372;2023-06-04T01:01:18;0.30;;;0.30;;
20287;SDS011;10303;51.960;8.372;2023-06-04T01:04:25;0.50;;;0.50;;
20287;SDS011;10303;51.960;8.372;2023-06-04T01:07:00;0.40;;;0.40;;
20287;SDS011;10303;51.960;8.372;2023-06-04T01:09:29;0.50;;;0.50;;
20287;SDS011;10303;51.960;8.372;2023-06-04T01:11:56;0.60;;;0.60;;
20287;SDS011;10303;51.960;8.372;2023-06-04T01:14:23;0.40;;;0.40;;
20287;SDS011;10303;51.960;8.372;2023-06-04T01:17:02;0.40;;;0.40;;
20287;SDS011;10303;51.960;8.372;2023-06-04T01:25:38;0.37;;;0.37;;
20287;SDS011;10303;51.960;8.372;2023-06-04T01:28:10;0.50;;;0.50;;
20287;SDS011;10303;51.960;8.372;2023-06-04T01:30:43;0.43;;;0.30;;
20287;SDS011;10303;51.960;8.372;2023-06-04T01:33:15;0.73;;;0.40;;
20287;SDS011;10303;51.960;8.372;2023-06-04T01:35:44;0.50;;;0.40;;
20287;SDS011;10303;51.960;8.372;2023-06-04T01:38:10;0.70;;;0.67;;
20287;SDS011;10303;51.960;8.372;2023-06-04T01:40:36;0.37;;;0.37;;
20287;SDS011;10303;51.960;8.372;2023-06-04T01:43:02;1.03;;;0.70;;
20287;SDS011;10303;51.960;8.372;2023-06-04T01:45:29;0.30;;;0.30;;
20287;SDS011;10303;51.960;8.372;2023-06-04T01:47:55;0.90;;;0.47;;
20287;SDS011;10303;51.960;8.372;2023-06-04T01:50:22;0.50;;;0.43;;
20287;SDS011;10303;51.960;8.372;2023-06-04T01:52:49;0.40;;;0.40;;
20287;SDS011;10303;51.960;8.372;2023-06-04T01:55:15;0.63;;;0.50;;
20287;SDS011;10303;51.960;8.372;2023-06-04T01:57:43;0.60;;;0.40;;
20287;SDS011;10303;51.960;8.372;2023-06-04T02:00:10;0.60;;;0.60;;
20287;SDS011;10303;51.960;8.372;2023-06-04T02:02:41;0.57;;;0.50;;
20287;SDS011;10303;51.960;8.372;2023-06-04T02:05:11;0.40;;;0.40;;
20287;SDS011;10303;51.960;8.372;2023-06-04T02:07:38;0.50;;;0.50;;
20287;SDS011;10303;51.960;8.372;2023-06-04T02:10:10;0.73;;;0.50;;
20287;SDS011;10303;51.960;8.372;2023-06-04T02:12:39;0.50;;;0.50;;
20287;SDS011;10303;51.960;8.372;2023-06-04T02:15:07;0.80;;;0.60;;
20287;SDS011;10303;51.960;8.372;2023-06-04T02:17:36;1.50;;;0.60;;
20287;SDS011;10303;51.960;8.372;2023-06-04T02:20:08;0.40;;;0.40;;
20287;SDS011;10303;51.960;8.372;2023-06-04T02:22:35;0.40;;;0.40;;
20287;SDS011;10303;51.960;8.372;2023-06-04T02:25:01;0.30;;;0.30;;
20287;SDS011;10303;51.960;8.372;2023-06-04T02:27:27;0.63;;;0.40;;
20287;SDS011;10303;51.960;8.372;2023-06-04T02:29:53;0.40;;;0.40;;
20287;SDS011;10303;51.960;8.372;2023-06-04T02:32:19;0.43;;;0.40;;
20287;SDS011;10303;51.960;8.372;2023-06-04T02:34:46;0.30;;;0.30;;
20287;SDS011;10303;51.960;8.372;2023-06-04T02:37:14;0.67;;;0.57;;
20287;SDS011;10303;51.960;8.372;2023-06-04T02:39:40;0.40;;;0.40;;
20287;SDS011;10303;51.960;8.372;2023-06-04T02:42:06;0.90;;;0.70;;
20287;SDS011;10303;51.960;8.372;2023-06-04T02:44:32;0.40;;;0.40;;
20287;SDS011;10303;51.960;8.372;2023-06-04T02:46:58;0.43;;;0.43;;
20287;SDS011;10303;51.960;8.372;2023-06-04T02:49:24;0.50;;;0.50;;
20287;SDS011;10303;51.960;8.372;2023-06-04T02:51:50;0.50;;;0.50;;
20287;SDS011;10303;51.960;8.372;2023-06-04T02:54:16;0.70;;;0.57;;
20287;SDS011;10303;51.960;8.372;2023-06-04T02:56:42;0.50;;;0.50;;
20287;SDS011;10303;51.960;8.372;2023-06-04T02:59:10;0.60;;;0.50;;
20287;SDS011;10303;51.960;8.372;2023-06-04T03:01:36;0.70;;;0.57;;
20287;SDS011;10303;51.960;8.372;2023-06-04T03:04:02;0.40;;;0.40;;
20287;SDS011;10303;51.960;8.372;2023-06-04T03:06:30;0.53;;;0.40;;
20287;SDS011;10303;51.960;8.372;2023-06-04T03:08:58;0.40;;;0.40;;
20287;SDS011;10303;51.960;8.372;2023-06-04T03:11:24;0.77;;;0.40;;
20287;SDS011;10303;51.960;8.372;2023-06-04T03:13:52;0.60;;;0.60;;
20287;SDS011;10303;51.960;8.372;2023-06-04T03:16:19;0.40;;;0.40;;
20287;SDS011;10303;51.960;8.372;2023-06-04T03:18:46;0.50;;;0.40;;
20287;SDS011;10303;51.960;8.372;2023-06-04T03:21:12;0.40;;;0.40;;
20287;SDS011;10303;51.960;8.372;2023-06-04T03:23:39;0.50;;;0.50;;
20287;SDS011;10303;51.960;8.372;2023-06-04T03:26:05;0.43;;;0.43;;
20287;SDS011;10303;51.960;8.372;2023-06-04T03:28:32;0.87;;;0.70;;
20287;SDS011;10303;51.960;8.372;2023-06-04T03:31:02;0.40;;;0.40;;
20287;SDS011;10303;51.960;8.372;2023-06-04T03:33:28;0.53;;;0.50;;
20287;SDS011;10303;51.960;8.372;2023-06-04T03:35:54;0.60;;;0.40;;
20287;SDS011;10303;51.960;8.372;2023-06-04T03:38:24;0.80;;;0.60;;
20287;SDS011;10303;51.960;8.372;2023-06-04T03:40:51;0.63;;;0.57;;
20287;SDS011;10303;51.960;8.372;2023-06-04T03:43:19;0.50;;;0.50;;
20287;SDS011;10303;51.960;8.372;2023-06-04T03:45:47;0.67;;;0.67;;
20287;SDS011;10303;51.960;8.372;2023-06-04T03:48:14;0.53;;;0.50;;
20287;SDS011;10303;51.960;8.372;2023-06-04T03:50:42;0.40;;;0.40;;
20287;SDS011;10303;51.960;8.372;2023-06-04T03:53:09;0.40;;;0.40;;
20287;SDS011;10303;51.960;8.372;2023-06-04T03:55:35;0.87;;;0.40;;
20287;SDS011;10303;51.960;8.372;2023-06-04T03:58:05;0.50;;;0.50;;
20287;SDS011;10303;51.960;8.372;2023-06-04T04:00:31;0.40;;;0.40;;
20287;SDS011;10303;51.960;8.372;2023-06-04T04:03:00;0.83;;;0.40;;
20287;SDS011;10303;51.960;8.372;2023-06-04T04:05:28;0.40;;;0.40;;
20287;SDS011;10303;51.960;8.372;2023-06-04T04:07:54;0.57;;;0.57;;
20287;SDS011;10303;51.960;8.372;2023-06-04T04:10:24;0.33;;;0.33;;
20287;SDS011;10303;51.960;8.372;2023-06-04T04:12:50;0.80;;;0.47;;
20287;SDS011;10303;51.960;8.372;2023-06-04T04:15:20;0.40;;;0.40;;
20287;SDS011;10303;51.960;8.372;2023-06-04T04:17:46;0.47;;;0.47;;
20287;SDS011;10303;51.960;8.372;2023-06-04T04:20:13;0.57;;;0.57;;
20287;SDS011;10303;51.960;8.372;2023-06-04T04:22:46;0.40;;;0.40;;
20287;SDS011;10303;51.960;8.372;2023-06-04T04:25:13;0.40;;;0.40;;
20287;SDS011;10303;51.960;8.372;2023-06-04T04:27:39;0.50;;;0.40;;
20287;SDS011;10303;51.960;8.372;2023-06-04T04:30:08;0.40;;;0.40;;
20287;SDS011;10303;51.960;8.372;2023-06-04T04:32:37;0.30;;;0.30;;
20287;SDS011;10303;51.960;8.372;2023-06-04T04:35:04;0.70;;;0.60;;
20287;SDS011;10303;51.960;8.372;2023-06-04T04:37:35;0.50;;;0.50;;
20287;SDS011;10303;51.960;8.372;2023-06-04T04:40:06;0.70;;;0.40;;
20287;SDS011;10303;51.960;8.372;2023-06-04T04:42:37;0.40;;;0.40;;
20287;SDS011;10303;51.960;8.372;2023-06-04T04:45:05;1.47;;;0.50;;
20287;SDS011;10303;51.960;8.372;2023-06-04T04:47:32;1.13;;;0.50;;
20287;SDS011;10303;51.960;8.372;2023-06-04T04:49:58;0.40;;;0.40;;
20287;SDS011;10303;51.960;8.372;2023-06-04T04:52:24;0.47;;;0.47;;
20287;SDS011;10303;51.960;8.372;2023-06-04T04:54:51;0.50;;;0.50;;
20287;SDS011;10303;51.960;8.372;2023-06-04T04:57:22;0.80;;;0.60;;
20287;SDS011;10303;51.960;8.372;2023-06-04T04:59:50;0.50;;;0.50;;
20287;SDS011;10303;51.960;8.372;2023-06-04T05:02:17;0.40;;;0.40;;
20287;SDS011;10303;51.960;8.372;2023-06-04T05:04:43;0.43;;;0.40;;
20287;SDS011;10303;51.960;8.372;2023-06-04T05:07:12;0.40;;;0.40;;
20287;SDS011;10303;51.960;8.372;2023-06-04T05:09:40;0.40;;;0.40;;
20287;SDS011;10303;51.960;8.372;2023-06-04T05:12:07;0.40;;;0.40;;
20287;SDS011;10303;51.960;8.372;2023-06-04T05:14:34;0.40;;;0.40;;
20287;SDS011;10303;51.960;8.372;2023-06-04T05:17:03;0.60;;;0.57;;
20287;SDS011;10303;51.960;8.372;2023-06-04T05:19:32;0.40;;;0.33;;
20287;SDS011;10303;51.960;8.372;2023-06-04T05:21:59;0.57;;;0.50;;
20287;SDS011;10303;51.960;8.372;2023-06-04T05:24:28;0.43;;;0.43;;
20287;SDS011;10303;51.960;8.372;2023-06-04T05:26:58;0.57;;;0.40;;
20287;SDS011;10303;51.960;8.372;2023-06-04T05:29:25;0.63;;;0.60;;
20287;SDS011;10303;51.960;8.372;2023-06-04T05:31:51;0.47;;;0.47;;
20287;SDS011;10303;51.960;8.372;2023-06-04T05:34:19;0.30;;;0.30;;
20287;SDS011;10303;51.960;8.372;2023-06-04T05:36:48;0.53;;;0.53;;
20287;SDS011;10303;51.960;8.372;2023-06-04T05:39:15;0.53;;;0.50;;
20287;SDS011;10303;51.960;8.372;2023-06-04T05:42:01;0.57;;;0.43;;
20287;SDS011;10303;51.960;8.372;2023-06-04T05:44:27;0.70;;;0.50;;
20287;SDS011;10303;51.960;8.372;2023-06-04T05:46:53;0.40;;;0.40;;
20287;SDS011;10303;51.960;8.372;2023-06-04T05:49:19;0.60;;;0.60;;
20287;SDS011;10303;51.960;8.372;2023-06-04T05:51:45;0.33;;;0.33;;
20287;SDS011;10303;51.960;8.372;2023-06-04T05:54:11;0.47;;;0.47;;
20287;SDS011;10303;51.960;8.372;2023-06-04T05:56:40;0.77;;;0.57;;
20287;SDS011;10303;51.960;8.372;2023-06-04T05:59:06;0.40;;;0.40;;
20287;SDS011;10303;51.960;8.372;2023-06-04T06:01:32;0.50;;;0.40;;
20287;SDS011;10303;51.960;8.372;2023-06-04T06:04:00;0.50;;;0.50;;
20287;SDS011;10303;51.960;8.372;2023-06-04T06:06:28;0.80;;;0.70;;
20287;SDS011;10303;51.960;8.372;2023-06-04T06:08:54;0.50;;;0.50;;
20287;SDS011;10303;51.960;8.372;2023-06-04T06:11:20;1.00;;;0.90;;
20287;SDS011;10303;51.960;8.372;2023-06-04T06:13:47;0.40;;;0.40;;
20287;SDS011;10303;51.960;8.372;2023-06-04T06:16:14;0.57;;;0.57;;
20287;SDS011;10303;51.960;8.372;2023-06-04T06:18:42;0.50;;;0.50;;
20287;SDS011;10303;51.960;8.372;2023-06-04T06:21:08;0.50;;;0.50;;
20287;SDS011;10303;51.960;8.372;2023-06-04T06:23:34;0.40;;;0.40;;
20287;SDS011;10303;51.960;8.372;2023-06-04T06:26:01;0.50;;;0.50;;
20287;SDS011;10303;51.960;8.372;2023-06-04T06:28:31;0.53;;;0.53;;
20287;SDS011;10303;51.960;8.372;2023-06-04T06:30:58;0.50;;;0.50;;
20287;SDS011;10303;51.960;8.372;2023-06-04T06:33:24;0.50;;;0.47;;
20287;SDS011;10303;51.960;8.372;2023-06-04T06:35:50;1.43;;;0.67;;
20287;SDS011;10303;51.960;8.372;2023-06-04T06:38:16;0.90;;;0.70;;
20287;SDS011;10303;51.960;8.372;2023-06-04T06:40:42;0.50;;;0.50;;
20287;SDS011;10303;51.960;8.372;2023-06-04T06:43:08;1.03;;;0.53;;
20287;SDS011;10303;51.960;8.372;2023-06-04T06:45:35;0.40;;;0.40;;
20287;SDS011;10303;51.960;8.372;2023-06-04T06:48:02;0.60;;;0.60;;
20287;SDS011;10303;51.960;8.372;2023-06-04T06:50:29;0.73;;;0.60;;
20287;SDS011;10303;51.960;8.372;2023-06-04T06:52:55;0.73;;;0.57;;
20287;SDS011;10303;51.960;8.372;2023-06-04T06:55:21;0.47;;;0.47;;
20287;SDS011;10303;51.960;8.372;2023-06-04T06:57:47;0.70;;;0.70;;
20287;SDS011;10303;51.960;8.372;2023-06-04T07:00:13;0.33;;;0.33;;
20287;SDS011;10303;51.960;8.372;2023-06-04T07:02:40;1.57;;;0.60;;
20287;SDS011;10303;51.960;8.372;2023-06-04T07:05:06;2.30;;;0.53;;
20287;SDS011;10303;51.960;8.372;2023-06-04T07:07:32;0.97;;;0.80;;
20287;SDS011;10303;51.960;8.372;2023-06-04T07:09:58;1.10;;;0.80;;
20287;SDS011;10303;51.960;8.372;2023-06-04T07:12:25;1.03;;;0.60;;
20287;SDS011;10303;51.960;8.372;2023-06-04T07:14:50;0.77;;;0.77;;
20287;SDS011;10303;51.960;8.372;2023-06-04T07:17:17;1.07;;;0.90;;
20287;SDS011;10303;51.960;8.372;2023-06-04T07:19:43;4.43;;;1.17;;
20287;SDS011;10303;51.960;8.372;2023-06-04T07:22:08;0.70;;;0.70;;
20287;SDS011;10303;51.960;8.372;2023-06-04T07:24:35;1.23;;;0.63;;
20287;SDS011;10303;51.960;8.372;2023-06-04T07:27:01;0.77;;;0.77;;
20287;SDS011;10303;51.960;8.372;2023-06-04T07:29:27;2.53;;;0.77;;
20287;SDS011;10303;51.960;8.372;2023-06-04T07:31:53;0.87;;;0.60;;
20287;SDS011;10303;51.960;8.372;2023-06-04T07:34:19;0.73;;;0.70;;
20287;SDS011;10303;51.960;8.372;2023-06-04T07:36:45;0.90;;;0.80;;
20287;SDS011;10303;51.960;8.372;2023-06-04T07:39:10;1.33;;;0.83;;
20287;SDS011;10303;51.960;8.372;2023-06-04T07:41:36;1.20;;;1.10;;
20287;SDS011;10303;51.960;8.372;2023-06-04T07:44:02;3.13;;;1.17;;
20287;SDS011;10303;51.960;8.372;2023-06-04T07:46:28;1.60;;;1.23;;
20287;SDS011;10303;51.960;8.372;2023-06-04T07:48:54;0.93;;;0.90;;
20287;SDS011;10303;51.960;8.372;2023-06-04T07:51:20;1.37;;;1.27;;
20287;SDS011;10303;51.960;8.372;2023-06-04T07:53:46;2.63;;;1.00;;
20287;SDS011;10303;51.960;8.372;2023-06-04T07:56:12;1.00;;;0.90;;
20287;SDS011;10303;51.960;8.372;2023-06-04T07:58:38;1.83;;;1.40;;
20287;SDS011;10303;51.960;8.372;2023-06-04T08:01:03;1.20;;;1.10;;
20287;SDS011;10303;51.960;8.372;2023-06-04T08:03:30;2.70;;;1.23;;
20287;SDS011;10303;51.960;8.372;2023-06-04T08:05:56;1.30;;;1.20;;
20287;SDS011;10303;51.960;8.372;2023-06-04T08:08:22;1.80;;;1.40;;
20287;SDS011;10303;51.960;8.372;2023-06-04T08:10:48;1.80;;;1.17;;
20287;SDS011;10303;51.960;8.372;2023-06-04T08:13:14;11.60;;;2.63;;
20287;SDS011;10303;51.960;8.372;2023-06-04T08:15:40;2.80;;;1.60;;
20287;SDS011;10303;51.960;8.372;2023-06-04T08:18:06;3.47;;;1.87;;
20287;SDS011;10303;51.960;8.372;2023-06-04T08:20:32;1.47;;;1.37;;
20287;SDS011;10303;51.960;8.372;2023-06-04T08:22:58;2.30;;;1.50;;
20287;SDS011;10303;51.960;8.372;2023-06-04T08:25:24;2.70;;;1.88;;
20287;SDS011;10303;51.960;8.372;2023-06-04T08:27:50;1.25;;;1.13;;
20287;SDS011;10303;51.960;8.372;2023-06-04T08:30:16;1.27;;;1.17;;
20287;SDS011;10303;51.960;8.372;2023-06-04T08:32:42;1.00;;;0.90;;
20287;SDS011;10303;51.960;8.372;2023-06-04T08:35:08;0.90;;;0.90;;
20287;SDS011;10303;51.960;8.372;2023-06-04T08:37:35;1.00;;;1.00;;
20287;SDS011;10303;51.960;8.372;2023-06-04T08:40:01;1.23;;;1.13;;
20287;SDS011;10303;51.960;8.372;2023-06-04T08:42:30;2.60;;;1.08;;
20287;SDS011;10303;51.960;8.372;2023-06-04T08:45:10;0.88;;;0.73;;
20287;SDS011;10303;51.960;8.372;2023-06-04T08:47:40;1.20;;;1.10;;
20287;SDS011;10303;51.960;8.372;2023-06-04T08:50:12;1.17;;;0.93;;
20287;SDS011;10303;51.960;8.372;2023-06-04T08:52:43;1.00;;;0.88;;
20287;SDS011;10303;51.960;8.372;2023-06-04T08:55:11;1.08;;;1.00;;
20287;SDS011;10303;51.960;8.372;2023-06-04T08:57:39;0.90;;;0.90;;
20287;SDS011;10303;51.960;8.372;2023-06-04T09:00:05;1.35;;;1.20;;
20287;SDS011;10303;51.960;8.372;2023-06-04T09:02:35;1.08;;;0.98;;
20287;SDS011;10303;51.960;8.372;2023-06-04T09:05:06;3.38;;;1.30;;
20287;SDS011;10303;51.960;8.372;2023-06-04T09:07:38;1.80;;;1.35;;
20287;SDS011;10303;51.960;8.372;2023-06-04T09:10:06;3.00;;;1.00;;
20287;SDS011;10303;51.960;8.372;2023-06-04T09:12:35;2.78;;;1.38;;
20287;SDS011;10303;51.960;8.372;2023-06-04T09:15:05;2.72;;;1.40;;
20287;SDS011;10303;51.960;8.372;2023-06-04T09:17:32;0.88;;;0.88;;
20287;SDS011;10303;51.960;8.372;2023-06-04T09:19:58;1.75;;;0.80;;
20287;SDS011;10303;51.960;8.372;2023-06-04T09:22:33;1.40;;;1.30;;
20287;SDS011;10303;51.960;8.372;2023-06-04T09:25:03;1.73;;;1.10;;
20287;SDS011;10303;51.960;8.372;2023-06-04T09:27:39;1.20;;;1.10;;
20287;SDS011;10303;51.960;8.372;2023-06-04T09:30:05;2.30;;;0.85;;
20287;SDS011;10303;51.960;8.372;2023-06-04T09:32:34;2.78;;;1.25;;
20287;SDS011;10303;51.960;8.372;2023-06-04T09:35:16;0.90;;;0.90;;
20287;SDS011;10303;51.960;8.372;2023-06-04T09:37:56;1.00;;;1.00;;
20287;SDS011;10303;51.960;8.372;2023-06-04T09:40:23;1.48;;;1.02;;
20287;SDS011;10303;51.960;8.372;2023-06-04T09:42:50;2.22;;;1.08;;
20287;SDS011;10303;51.960;8.372;2023-06-04T09:45:26;1.65;;;1.00;;
20287;SDS011;10303;51.960;8.372;2023-06-04T09:47:57;3.33;;;1.05;;
20287;SDS011;10303;51.960;8.372;2023-06-04T09:50:25;0.82;;;0.82;;
20287;SDS011;10303;51.960;8.372;2023-06-04T09:52:53;3.95;;;0.90;;
20287;SDS011;10303;51.960;8.372;2023-06-04T09:55:19;1.10;;;1.00;;
20287;SDS011;10303;51.960;8.372;2023-06-04T09:57:47;1.10;;;1.00;;
20287;SDS011;10303;51.960;8.372;2023-06-04T10:00:19;1.20;;;1.10;;
20287;SDS011;10303;51.960;8.372;2023-06-04T10:02:48;1.10;;;1.00;;
20287;SDS011;10303;51.960;8.372;2023-06-04T10:05:19;1.33;;;1.23;;
20287;SDS011;10303;51.960;8.372;2023-06-04T10:07:47;1.20;;;1.10;;
20287;SDS011;10303;51.960;8.372;2023-06-04T10:10:19;1.75;;;1.20;;
20287;SDS011;10303;51.960;8.372;2023-06-04T10:12:50;1.23;;;1.00;;
20287;SDS011;10303;51.960;8.372;2023-06-04T10:15:27;2.10;;;1.10;;
20287;SDS011;10303;51.960;8.372;2023-06-04T10:17:54;0.95;;;0.90;;
20287;SDS011;10303;51.960;8.372;2023-06-04T10:20:21;1.58;;;1.30;;
20287;SDS011;10303;51.960;8.372;2023-06-04T10:22:48;1.30;;;1.00;;
20287;SDS011;10303;51.960;8.372;2023-06-04T10:25:15;0.85;;;0.85;;
20287;SDS011;10303;51.960;8.372;2023-06-04T10:27:43;1.00;;;0.90;;
20287;SDS011;10303;51.960;8.372;2023-06-04T10:30:11;2.85;;;1.50;;
20287;SDS011;10303;51.960;8.372;2023-06-04T10:32:38;1.52;;;0.93;;
20287;SDS011;10303;51.960;8.372;2023-06-04T10:35:04;1.38;;;1.10;;
20287;SDS011;10303;51.960;8.372;2023-06-04T10:37:33;1.45;;;1.23;;
20287;SDS011;10303;51.960;8.372;2023-06-04T10:39:59;1.08;;;1.02;;
20287;SDS011;10303;51.960;8.372;2023-06-04T10:42:25;0.90;;;0.90;;
20287;SDS011;10303;51.960;8.372;2023-06-04T10:45:02;10.18;;;1.98;;
20287;SDS011;10303;51.960;8.372;2023-06-04T10:47:29;3.92;;;1.95;;
20287;SDS011;10303;51.960;8.372;2023-06-04T10:50:06;1.85;;;1.70;;
20287;SDS011;10303;51.960;8.372;2023-06-04T10:52:38;1.05;;;0.95;;
20287;SDS011;10303;51.960;8.372;2023-06-04T10:55:16;1.10;;;1.00;;
20287;SDS011;10303;51.960;8.372;2023-06-04T10:57:52;1.08;;;1.00;;
20287;SDS011;10303;51.960;8.372;2023-06-04T11:00:20;1.10;;;1.00;;
20287;SDS011;10303;51.960;8.372;2023-06-04T11:02:53;2.80;;;1.10;;
20287;SDS011;10303;51.960;8.372;2023-06-04T11:05:20;2.63;;;1.20;;
20287;SDS011;10303;51.960;8.372;2023-06-04T11:07:49;1.50;;;1.40;;
20287;SDS011;10303;51.960;8.372;2023-06-04T11:10:15;1.20;;;1.10;;
20287;SDS011;10303;51.960;8.372;2023-06-04T11:12:43;1.52;;;1.38;;
20287;SDS011;10303;51.960;8.372;2023-06-04T11:15:11;1.42;;;1.33;;
20287;SDS011;10303;51.960;8.372;2023-06-04T11:17:48;1.20;;;1.17;;
20287;SDS011;10303;51.960;8.372;2023-06-04T11:20:19;1.02;;;1.02;;
20287;SDS011;10303;51.960;8.372;2023-06-04T11:22:57;1.40;;;1.30;;
20287;SDS011;10303;51.960;8.372;2023-06-04T11:25:29;3.00;;;1.30;;
20287;SDS011;10303;51.960;8.372;2023-06-04T11:27:58;2.72;;;1.23;;
20287;SDS011;10303;51.960;8.372;2023-06-04T11:30:27;1.20;;;1.10;;
20287;SDS011;10303;51.960;8.372;2023-06-04T11:33:03;1.20;;;1.10;;
20287;SDS011;10303;51.960;8.372;2023-06-04T11:35:30;3.42;;;1.30;;
20287;SDS011;10303;51.960;8.372;2023-06-04T11:38:05;1.30;;;1.20;;
20287;SDS011;10303;51.960;8.372;2023-06-04T11:40:31;1.17;;;1.10;;
20287;SDS011;10303;51.960;8.372;2023-06-04T11:42:57;1.45;;;1.30;;
20287;SDS011;10303;51.960;8.372;2023-06-04T11:45:23;1.60;;;1.15;;
20287;SDS011;10303;51.960;8.372;2023-06-04T11:47:54;1.45;;;1.35;;
20287;SDS011;10303;51.960;8.372;2023-06-04T11:50:22;2.00;;;1.15;;
20287;SDS011;10303;51.960;8.372;2023-06-04T11:52:53;1.40;;;1.30;;
20287;SDS011;10303;51.960;8.372;2023-06-04T11:55:19;1.15;;;1.15;;
20287;SDS011;10303;51.960;8.372;2023-06-04T11:57:47;1.27;;;1.17;;
20287;SDS011;10303;51.960;8.372;2023-06-04T12:00:14;0.90;;;0.90;;
20287;SDS011;10303;51.960;8.372;2023-06-04T12:02:49;1.13;;;1.00;;
20287;SDS011;10303;51.960;8.372;2023-06-04T12:05:23;1.80;;;1.00;;
20287;SDS011;10303;51.960;8.372;2023-06-04T12:08:05;1.00;;;0.90;;
20287;SDS011;10303;51.960;8.372;2023-06-04T12:10:37;3.22;;;1.00;;
20287;SDS011;10303;51.960;8.372;2023-06-04T12:13:04;3.70;;;1.58;;
20287;SDS011;10303;51.960;8.372;2023-06-04T12:15:30;1.65;;;1.38;;
20287;SDS011;10303;51.960;8.372;2023-06-04T12:17:56;1.67;;;1.58;;
20287;SDS011;10303;51.960;8.372;2023-06-04T12:23:03;1.05;;;0.90;;
20287;SDS011;10303;51.960;8.372;2023-06-04T12:25:31;0.70;;;0.70;;
20287;SDS011;10303;51.960;8.372;2023-06-04T12:27:58;0.90;;;0.90;;
20287;SDS011;10303;51.960;8.372;2023-06-04T12:30:34;0.80;;;0.80;;
20287;SDS011;10303;51.960;8.372;2023-06-04T12:33:02;0.95;;;0.85;;
20287;SDS011;10303;51.960;8.372;2023-06-04T12:35:28;0.80;;;0.80;;
20287;SDS011;10303;51.960;8.372;2023-06-04T12:37:54;1.25;;;0.70;;
20287;SDS011;10303;51.960;8.372;2023-06-04T12:40:20;1.10;;;1.10;;
20287;SDS011;10303;51.960;8.372;2023-06-04T12:42:45;1.30;;;1.20;;
20287;SDS011;10303;51.960;8.372;2023-06-04T12:45:15;1.00;;;1.00;;
20287;SDS011;10303;51.960;8.372;2023-06-04T12:47:42;0.93;;;0.93;;
20287;SDS011;10303;51.960;8.372;2023-06-04T12:50:09;0.68;;;0.68;;
20287;SDS011;10303;51.960;8.372;2023-06-04T12:52:36;1.17;;;0.90;;
20287;SDS011;10303;51.960;8.372;2023-06-04T12:55:02;1.92;;;0.90;;
20287;SDS011;10303;51.960;8.372;2023-06-04T12:57:28;2.33;;;1.25;;
20287;SDS011;10303;51.960;8.372;2023-06-04T12:59:54;1.65;;;0.80;;
20287;SDS011;10303;51.960;8.372;2023-06-04T13:02:21;1.55;;;0.90;;
20287;SDS011;10303;51.960;8.372;2023-06-04T13:04:47;0.90;;;0.90;;
20287;SDS011;10303;51.960;8.372;2023-06-04T13:07:18;1.23;;;1.00;;
20287;SDS011;10303;51.960;8.372;2023-06-04T13:09:44;2.05;;;0.70;;
20287;SDS011;10303;51.960;8.372;2023-06-04T13:12:10;0.70;;;0.70;;
20287;SDS011;10303;51.960;8.372;2023-06-04T13:14:36;0.75;;;0.73;;
20287;SDS011;10303;51.960;8.372;2023-06-04T13:17:01;1.05;;;0.63;;
20287;SDS011;10303;51.960;8.372;2023-06-04T13:19:27;1.67;;;1.08;;
20287;SDS011;10303;51.960;8.372;2023-06-04T13:21:53;0.95;;;0.85;;
20287;SDS011;10303;51.960;8.372;2023-06-04T13:24:19;0.80;;;0.80;;
20287;SDS011;10303;51.960;8.372;2023-06-04T13:26:45;1.00;;;0.80;;
20287;SDS011;10303;51.960;8.372;2023-06-04T13:29:11;0.60;;;0.60;;
20287;SDS011;10303;51.960;8.372;2023-06-04T13:31:38;0.68;;;0.68;;
20287;SDS011;10303;51.960;8.372;2023-06-04T13:34:05;0.70;;;0.70;;
20287;SDS011;10303;51.960;8.372;2023-06-04T13:36:31;0.80;;;0.80;;
20287;SDS011;10303;51.960;8.372;2023-06-04T13:38:57;0.70;;;0.70;;
20287;SDS011;10303;51.960;8.372;2023-06-04T13:41:23;0.60;;;0.60;;
20287;SDS011;10303;51.960;8.372;2023-06-04T13:43:49;0.95;;;0.80;;
20287;SDS011;10303;51.960;8.372;2023-06-04T13:46:15;1.05;;;0.60;;
20287;SDS011;10303;51.960;8.372;2023-06-04T13:48:41;0.60;;;0.60;;
20287;SDS011;10303;51.960;8.372;2023-06-04T13:51:07;1.17;;;0.90;;
20287;SDS011;10303;51.960;8.372;2023-06-04T13:53:32;1.45;;;0.70;;
20287;SDS011;10303;51.960;8.372;2023-06-04T13:55:58;0.65;;;0.65;;
20287;SDS011;10303;51.960;8.372;2023-06-04T13:58:25;0.80;;;0.68;;
20287;SDS011;10303;51.960;8.372;2023-06-04T14:00:51;0.75;;;0.70;;
20287;SDS011;10303;51.960;8.372;2023-06-04T14:03:18;1.88;;;0.70;;
20287;SDS011;10303;51.960;8.372;2023-06-04T14:05:44;1.17;;;0.52;;
20287;SDS011;10303;51.960;8.372;2023-06-04T14:08:10;0.85;;;0.70;;
20287;SDS011;10303;51.960;8.372;2023-06-04T14:10:37;0.65;;;0.65;;
20287;SDS011;10303;51.960;8.372;2023-06-04T14:13:06;0.98;;;0.98;;
20287;SDS011;10303;51.960;8.372;2023-06-04T14:15:33;0.70;;;0.70;;
20287;SDS011;10303;51.960;8.372;2023-06-04T14:17:59;1.20;;;0.88;;
20287;SDS011;10303;51.960;8.372;2023-06-04T14:20:26;0.70;;;0.70;;
20287;SDS011;10303;51.960;8.372;2023-06-04T14:22:52;0.90;;;0.90;;
20287;SDS011;10303;51.960;8.372;2023-06-04T14:25:18;1.25;;;0.60;;
20287;SDS011;10303;51.960;8.372;2023-06-04T14:27:44;0.60;;;0.60;;
20287;SDS011;10303;51.960;8.372;2023-06-04T14:30:10;0.50;;;0.50;;
20287;SDS011;10303;51.960;8.372;2023-06-04T14:32:38;0.90;;;0.80;;
20287;SDS011;10303;51.960;8.372;2023-06-04T14:35:05;1.08;;;0.98;;
20287;SDS011;10303;51.960;8.372;2023-06-04T14:37:32;1.65;;;0.80;;
20287;SDS011;10303;51.960;8.372;2023-06-04T14:39:58;1.73;;;1.20;;
20287;SDS011;10303;51.960;8.372;2023-06-04T14:42:24;0.68;;;0.68;;
20287;SDS011;10303;51.960;8.372;2023-06-04T14:44:50;0.70;;;0.70;;
20287;SDS011;10303;51.960;8.372;2023-06-04T14:47:16;1.50;;;0.70;;
20287;SDS011;10303;51.960;8.372;2023-06-04T14:49:42;0.47;;;0.47;;
20287;SDS011;10303;51.960;8.372;2023-06-04T14:52:07;1.13;;;0.70;;
20287;SDS011;10303;51.960;8.372;2023-06-04T14:54:34;2.78;;;1.00;;
20287;SDS011;10303;51.960;8.372;2023-06-04T14:57:00;2.40;;;0.60;;
20287;SDS011;10303;51.960;8.372;2023-06-04T14:59:27;0.68;;;0.68;;
20287;SDS011;10303;51.960;8.372;2023-06-04T15:01:53;0.60;;;0.60;;